createdAt,value
2022-10-05T00:01:11.018Z,23.5
2022-10-05T00:06:10.994Z,23.5
2022-10-05T00:11:10.982Z,23
2022-10-05T00:16:10.953Z,23
2022-10-05T00:21:10.942Z,23
2022-10-05T00:26:10.917Z,23
2022-10-05T00:31:10.888Z,23.5
2022-10-05T00:36:10.877Z,24
2022-10-05T00:41:10.859Z,23.5
2022-10-05T00:46:10.839Z,24
2022-10-05T00:51:10.820Z,23.5
2022-10-05T00:56:10.795Z,24
2022-10-05T01:01:10.788Z,24.5
2022-10-05T01:06:10.755Z,24
2022-10-05T01:11:10.735Z,23.5
2022-10-05T01:21:10.704Z,24.5
2022-10-05T01:26:10.678Z,24.5
2022-10-05T01:31:10.655Z,24.5
2022-10-05T01:36:10.659Z,24.5
2022-10-05T01:41:10.612Z,24.5
2022-10-05T01:46:10.597Z,24
2022-10-05T01:51:10.575Z,24
2022-10-05T01:56:10.547Z,23.5
2022-10-05T02:01:10.533Z,24
2022-10-05T02:06:10.512Z,24.5
2022-10-05T02:11:10.529Z,24
2022-10-05T02:16:10.473Z,24.5
2022-10-05T02:21:10.459Z,25
2022-10-05T02:26:10.430Z,24.5
2022-10-05T02:31:10.413Z,24.5
2022-10-05T02:36:10.390Z,25
2022-10-05T02:41:10.373Z,25.5
2022-10-05T02:46:10.347Z,25.5
2022-10-05T02:51:10.354Z,25.5
2022-10-05T02:56:10.319Z,25.5
2022-10-05T03:01:10.370Z,25.5
2022-10-05T03:06:10.277Z,26
2022-10-05T03:11:10.259Z,26
2022-10-05T03:16:10.240Z,26
2022-10-05T03:21:10.227Z,26
2022-10-05T03:26:10.192Z,26
2022-10-05T03:31:10.180Z,26.5
2022-10-05T03:36:10.159Z,26.5
2022-10-05T03:41:10.138Z,26
2022-10-05T03:46:10.109Z,26.5
2022-10-05T03:51:10.128Z,26.5
2022-10-05T03:56:10.073Z,27
2022-10-05T04:01:10.058Z,26.5
2022-10-05T04:06:10.037Z,27
2022-10-05T04:11:10.015Z,28
2022-10-05T04:16:09.996Z,28
2022-10-05T04:21:09.979Z,28.5
2022-10-05T04:26:09.962Z,28.5
2022-10-05T04:31:09.933Z,29
2022-10-05T04:36:09.910Z,29
2022-10-05T04:41:09.908Z,28.5
2022-10-05T04:46:09.876Z,28.5
2022-10-05T04:51:09.873Z,29
2022-10-05T04:56:09.899Z,29
2022-10-05T05:01:09.817Z,29.5
2022-10-05T05:06:09.800Z,29.5
2022-10-05T05:11:09.802Z,30
2022-10-05T05:16:09.760Z,30
2022-10-05T05:21:09.754Z,30
2022-10-05T05:26:09.734Z,30.5
2022-10-05T05:31:09.711Z,30.5
2022-10-05T05:36:09.699Z,30
2022-10-05T05:41:09.739Z,30
2022-10-05T05:46:09.647Z,30.5
2022-10-05T05:51:09.625Z,30.5
2022-10-05T05:56:09.661Z,30.5
2022-10-05T06:01:09.603Z,31
2022-10-05T06:06:09.657Z,31
2022-10-05T06:11:09.638Z,31
2022-10-05T06:16:09.536Z,31
2022-10-05T06:21:09.576Z,31
2022-10-05T06:26:09.490Z,31.5
2022-10-05T06:31:09.471Z,31
2022-10-05T06:36:09.448Z,31
2022-10-05T06:41:09.483Z,31
2022-10-05T06:46:09.415Z,31
2022-10-05T06:51:09.424Z,31
2022-10-05T06:56:09.365Z,30.5
2022-10-05T07:01:09.351Z,30
2022-10-05T07:06:09.373Z,30
2022-10-05T07:11:09.309Z,30
2022-10-05T07:16:09.312Z,29.5
2022-10-05T07:21:09.305Z,29
2022-10-05T07:26:09.305Z,28.5
2022-10-05T07:31:09.232Z,28.5
2022-10-05T07:36:09.206Z,27.5
2022-10-05T07:41:09.298Z,27.5
2022-10-05T07:46:09.194Z,27
2022-10-05T07:51:09.224Z,27
2022-10-05T07:56:09.151Z,26
2022-10-05T08:01:09.114Z,25
2022-10-05T08:06:09.093Z,24.5
2022-10-05T08:11:09.130Z,24
2022-10-05T08:16:09.175Z,22.5
2022-10-05T08:21:09.036Z,21.5
2022-10-05T08:26:09.048Z,21
2022-10-05T08:31:09.030Z,21
2022-10-05T08:36:09.017Z,20
2022-10-05T08:41:08.948Z,14.5
2022-10-05T08:46:08.931Z,13.5
2022-10-05T08:51:08.907Z,11.5
2022-10-05T08:56:08.885Z,5.5
2022-10-05T09:01:08.859Z,2.5
2022-10-05T09:06:08.843Z,0
2022-10-05T09:11:08.822Z,0
2022-10-05T09:16:08.805Z,0
2022-10-05T09:21:08.780Z,0
2022-10-05T09:26:08.773Z,0
2022-10-05T09:31:08.757Z,0
2022-10-05T09:36:08.715Z,0
2022-10-05T09:41:08.703Z,0
2022-10-05T09:46:08.701Z,0
2022-10-05T09:51:08.669Z,0
2022-10-05T09:56:08.688Z,0
2022-10-05T10:01:08.644Z,0
2022-10-05T10:06:08.584Z,0
2022-10-05T10:11:08.568Z,0
2022-10-05T10:16:08.540Z,99
2022-10-05T10:21:08.523Z,97
2022-10-05T10:26:08.493Z,94.5
2022-10-05T10:31:08.484Z,90.5
2022-10-05T10:36:08.504Z,91.5
2022-10-05T10:41:08.439Z,88.5
2022-10-05T10:46:08.442Z,87
2022-10-05T10:51:08.397Z,86.5
2022-10-05T10:56:08.386Z,84
2022-10-05T11:01:08.357Z,83.5
2022-10-05T11:06:08.329Z,84
2022-10-05T11:11:08.305Z,84
2022-10-05T11:16:08.294Z,83
2022-10-05T11:21:08.265Z,82
2022-10-05T11:26:08.271Z,82
2022-10-05T11:31:08.332Z,79
2022-10-05T11:36:08.203Z,80.5
2022-10-05T11:41:08.185Z,79
2022-10-05T11:46:08.207Z,78.5
2022-10-05T11:51:08.152Z,74.5
2022-10-05T11:56:08.212Z,70.5
2022-10-05T12:01:08.164Z,64.5
2022-10-05T12:06:08.090Z,67
2022-10-05T12:11:08.111Z,65
2022-10-05T12:16:08.040Z,61.5
2022-10-05T12:21:08.038Z,56.5
2022-10-05T12:26:08.009Z,56
2022-10-05T12:31:07.996Z,55.5
2022-10-05T12:36:07.947Z,54
2022-10-05T12:41:07.933Z,57
2022-10-05T12:46:07.898Z,56.5
2022-10-05T12:51:07.906Z,58
2022-10-05T12:56:07.924Z,58.5
2022-10-05T13:01:07.835Z,59
2022-10-05T13:06:07.941Z,60
2022-10-05T13:11:07.805Z,58.5
2022-10-05T13:16:07.873Z,57
2022-10-05T13:21:07.763Z,58
2022-10-05T13:26:07.732Z,58.5
2022-10-05T13:31:07.737Z,57.5
2022-10-05T13:36:07.694Z,56.5
2022-10-05T13:41:07.674Z,57.5
2022-10-05T13:46:07.657Z,56
2022-10-05T13:51:07.770Z,56
2022-10-05T13:56:07.607Z,56
2022-10-05T14:01:07.589Z,56.5
2022-10-05T14:06:07.574Z,56
2022-10-05T14:11:07.589Z,55.5
2022-10-05T14:16:07.520Z,55.5
2022-10-05T14:21:07.508Z,56
2022-10-05T14:26:07.481Z,55.5
2022-10-05T14:31:07.453Z,56.5
2022-10-05T14:36:07.442Z,55.5
2022-10-05T14:41:07.525Z,54.5
2022-10-05T14:46:07.481Z,53.5
2022-10-05T14:51:07.374Z,54
2022-10-05T14:56:07.348Z,51.5
2022-10-05T15:01:07.332Z,53
2022-10-05T15:06:07.369Z,52.5
2022-10-05T15:11:07.295Z,53
2022-10-05T15:16:07.346Z,53
2022-10-05T15:21:07.251Z,54
2022-10-05T15:26:07.242Z,53.5
2022-10-05T15:31:07.199Z,53.5
2022-10-05T15:36:07.207Z,55
2022-10-05T15:46:07.130Z,56
2022-10-05T15:51:07.116Z,56
2022-10-05T15:56:07.098Z,58
2022-10-05T16:01:07.079Z,58.5
2022-10-05T16:06:07.046Z,59
2022-10-05T16:11:07.034Z,60
2022-10-05T16:16:07.015Z,61.5
2022-10-05T16:21:06.984Z,61.5
2022-10-05T16:26:06.956Z,62.5
2022-10-05T16:31:06.942Z,62.5
2022-10-05T16:36:06.919Z,63.5
2022-10-05T16:41:06.903Z,64
2022-10-05T16:46:06.886Z,65
2022-10-05T16:51:06.861Z,65.5
2022-10-05T16:56:06.831Z,65.5
2022-10-05T17:01:06.817Z,66.5
2022-10-05T17:06:06.800Z,67
2022-10-05T17:11:06.773Z,68
2022-10-05T17:16:06.749Z,68.5
2022-10-05T17:21:06.731Z,69.5
2022-10-05T17:26:06.720Z,70
2022-10-05T17:31:06.688Z,71.5
2022-10-05T17:36:06.669Z,71
2022-10-05T17:41:06.637Z,70.5
2022-10-05T17:46:06.625Z,71
2022-10-05T17:51:06.605Z,72.5
2022-10-05T17:56:06.572Z,73
2022-10-05T18:01:06.565Z,74
2022-10-05T18:06:06.535Z,74
2022-10-05T18:11:06.514Z,75.5
2022-10-05T18:16:06.561Z,75.5
2022-10-05T18:21:06.478Z,76.5
2022-10-05T18:26:06.454Z,77.5
2022-10-05T18:31:06.425Z,78
2022-10-05T18:36:06.406Z,79
2022-10-05T18:41:06.380Z,81
2022-10-05T18:46:06.367Z,81
2022-10-05T18:51:06.346Z,82
2022-10-05T18:56:06.337Z,83.5
2022-10-05T19:01:06.324Z,84.5
2022-10-05T19:06:06.276Z,84.5
2022-10-05T19:11:06.261Z,85.5
2022-10-05T19:16:06.243Z,85.5
2022-10-05T19:21:06.221Z,86.5
2022-10-05T19:26:06.199Z,87.5
2022-10-05T19:31:06.176Z,88
2022-10-05T19:36:06.165Z,89
2022-10-05T19:41:06.137Z,89
2022-10-05T19:46:06.105Z,89.5
2022-10-05T19:51:06.091Z,89
2022-10-05T19:56:06.067Z,89
2022-10-05T20:01:06.046Z,88.5
2022-10-05T20:06:06.030Z,89
2022-10-05T20:11:06.002Z,92
2022-10-05T20:16:05.984Z,89.5
2022-10-05T20:21:05.964Z,90.5
2022-10-05T20:26:05.941Z,91
2022-10-05T20:31:05.920Z,94.5
2022-10-05T20:36:05.904Z,95.5
2022-10-05T20:41:05.879Z,97
2022-10-05T20:46:05.862Z,100
2022-10-05T20:51:05.841Z,100
2022-10-05T20:56:05.814Z,100
2022-10-05T21:01:05.825Z,100
2022-10-05T21:06:05.772Z,100
2022-10-05T21:11:05.758Z,100
2022-10-05T21:16:05.738Z,100
2022-10-05T21:21:05.714Z,100
2022-10-05T21:26:05.733Z,100
2022-10-05T21:31:05.752Z,100
2022-10-05T21:36:05.755Z,100
2022-10-05T21:41:05.632Z,100
2022-10-05T21:46:05.619Z,100
2022-10-05T21:51:05.586Z,100
2022-10-05T21:56:05.576Z,100
2022-10-05T22:01:05.548Z,100
2022-10-05T22:06:05.529Z,100
2022-10-05T22:11:05.509Z,100
2022-10-05T22:16:05.484Z,100
2022-10-05T22:21:05.466Z,100
2022-10-05T22:26:05.447Z,100
2022-10-05T22:31:05.418Z,100
2022-10-05T22:36:05.399Z,100
2022-10-05T22:41:05.379Z,100
2022-10-05T22:46:05.362Z,100
2022-10-05T22:51:05.335Z,100
2022-10-05T22:56:05.319Z,100
2022-10-05T23:01:05.299Z,100
2022-10-05T23:06:05.281Z,100
2022-10-05T23:11:05.261Z,100
2022-10-05T23:16:05.237Z,100
2022-10-05T23:21:05.214Z,100
2022-10-05T23:26:05.195Z,100
2022-10-05T23:31:05.202Z,100
2022-10-05T23:36:05.153Z,100
2022-10-05T23:41:05.131Z,100
2022-10-05T23:46:05.110Z,100
2022-10-05T23:51:05.086Z,100
2022-10-05T23:56:05.066Z,100
